createdAt,value
2018-07-09T00:01:59.123Z,2.10
2018-07-09T00:04:28.360Z,1.90
2018-07-09T00:06:57.314Z,1.90
2018-07-09T00:09:26.319Z,1.77
2018-07-09T00:11:54.855Z,2.07
2018-07-09T00:14:23.218Z,1.97
2018-07-09T00:16:51.662Z,1.60
2018-07-09T00:19:20.158Z,1.73
2018-07-09T00:21:48.648Z,1.60
2018-07-09T00:24:17.048Z,1.70
2018-07-09T00:26:45.294Z,1.60
2018-07-09T00:29:13.494Z,1.20
2018-07-09T00:31:41.751Z,1.80
2018-07-09T00:34:10.121Z,1.43
2018-07-09T00:36:38.371Z,1.47
2018-07-09T00:39:06.803Z,1.30
2018-07-09T00:41:36.068Z,1.40
2018-07-09T00:44:04.468Z,1.40
2018-07-09T00:46:32.755Z,1.40
2018-07-09T00:49:01.031Z,1.70
2018-07-09T00:51:30.203Z,1.40
2018-07-09T00:54:07.094Z,1.40
2018-07-09T00:56:35.561Z,1.80
2018-07-09T00:59:04.483Z,1.20
2018-07-09T01:01:32.782Z,1.60
2018-07-09T01:04:01.349Z,1.67
2018-07-09T01:06:29.620Z,1.57
2018-07-09T01:08:57.903Z,1.63
2018-07-09T01:11:38.516Z,1.50
2018-07-09T01:14:07.038Z,1.73
2018-07-09T01:16:35.290Z,1.30
2018-07-09T01:19:03.855Z,1.37
2018-07-09T01:21:32.138Z,1.50
2018-07-09T01:24:00.546Z,1.30
2018-07-09T01:26:28.808Z,1.70
2018-07-09T01:28:57.126Z,1.70
2018-07-09T01:31:25.460Z,1.73
2018-07-09T01:33:53.795Z,1.77
2018-07-09T01:36:22.030Z,2.10
2018-07-09T01:38:50.332Z,1.70
2018-07-09T01:41:18.591Z,1.80
2018-07-09T01:43:52.023Z,1.57
2018-07-09T01:46:20.918Z,2.17
2018-07-09T01:48:49.131Z,1.67
2018-07-09T01:51:18.780Z,1.83
2018-07-09T01:53:47.046Z,1.73
2018-07-09T01:56:15.320Z,1.97
2018-07-09T01:58:44.476Z,1.90
2018-07-09T02:01:12.871Z,1.87
2018-07-09T02:03:41.527Z,2.00
2018-07-09T02:06:09.952Z,2.00
2018-07-09T02:08:38.987Z,2.10
2018-07-09T02:11:07.072Z,1.97
2018-07-09T02:13:35.324Z,1.90
2018-07-09T02:16:04.289Z,1.87
2018-07-09T02:18:32.607Z,1.93
2018-07-09T02:21:01.204Z,1.87
2018-07-09T02:23:29.839Z,2.10
2018-07-09T02:25:58.626Z,2.40
2018-07-09T02:28:27.262Z,2.00
2018-07-09T02:30:55.723Z,2.27
2018-07-09T02:33:24.353Z,1.97
2018-07-09T02:35:52.874Z,1.90
2018-07-09T02:38:21.500Z,1.97
2018-07-09T02:40:49.864Z,2.40
2018-07-09T02:43:19.788Z,2.23
2018-07-09T02:45:48.156Z,2.17
2018-07-09T02:48:16.394Z,1.93
2018-07-09T02:50:44.851Z,1.93
2018-07-09T02:53:13.184Z,2.40
2018-07-09T02:55:47.111Z,1.97
2018-07-09T02:58:15.843Z,2.00
2018-07-09T03:00:44.111Z,2.03
2018-07-09T03:03:12.476Z,2.10
2018-07-09T03:05:46.396Z,2.00
2018-07-09T03:08:14.644Z,1.97
2018-07-09T03:10:43.423Z,2.20
2018-07-09T03:13:11.744Z,2.00
2018-07-09T03:15:45.643Z,2.03
2018-07-09T03:18:13.892Z,2.37
2018-07-09T03:20:42.122Z,2.40
2018-07-09T03:23:10.553Z,2.20
2018-07-09T03:25:49.307Z,2.43
2018-07-09T03:28:17.596Z,2.30
2018-07-09T03:30:46.079Z,2.57
2018-07-09T03:33:14.385Z,2.30
2018-07-09T03:35:42.663Z,2.40
2018-07-09T03:38:11.027Z,2.60
2018-07-09T03:40:39.589Z,2.40
2018-07-09T03:43:07.887Z,2.20
2018-07-09T03:45:36.167Z,2.80
2018-07-09T03:48:04.861Z,2.70
2018-07-09T03:50:33.726Z,2.57
2018-07-09T03:53:02.003Z,3.20
2018-07-09T03:55:30.246Z,2.80
2018-07-09T03:57:58.470Z,2.83
2018-07-09T04:00:26.942Z,2.60
2018-07-09T04:02:55.275Z,3.00
2018-07-09T04:05:23.562Z,2.60
2018-07-09T04:07:51.947Z,3.00
2018-07-09T04:10:20.180Z,3.20
2018-07-09T04:12:48.672Z,3.00
2018-07-09T04:15:17.571Z,3.23
2018-07-09T04:17:45.904Z,3.23
2018-07-09T04:20:15.786Z,3.20
2018-07-09T04:22:44.175Z,3.40
2018-07-09T04:25:21.777Z,2.90
2018-07-09T04:27:51.790Z,3.30
2018-07-09T04:30:20.155Z,3.17
2018-07-09T04:32:48.718Z,3.17
2018-07-09T04:35:16.999Z,3.43
2018-07-09T04:37:45.284Z,3.40
2018-07-09T04:40:13.561Z,3.63
2018-07-09T04:42:41.819Z,3.57
2018-07-09T04:45:10.168Z,3.20
2018-07-09T04:47:38.787Z,3.80
2018-07-09T04:50:07.214Z,3.50
2018-07-09T04:52:35.561Z,3.90
2018-07-09T04:55:03.830Z,3.90
2018-07-09T04:57:32.125Z,4.00
2018-07-09T05:00:01.625Z,3.77
2018-07-09T05:02:32.084Z,3.93
2018-07-09T05:05:03.223Z,3.80
2018-07-09T05:07:31.882Z,4.13
2018-07-09T05:10:00.440Z,3.90
2018-07-09T05:12:29.226Z,3.60
2018-07-09T05:14:58.117Z,3.67
2018-07-09T05:17:27.599Z,3.37
2018-07-09T05:19:56.132Z,3.40
2018-07-09T05:22:25.658Z,3.60
2018-07-09T05:24:54.367Z,3.20
2018-07-09T05:27:22.871Z,3.30
2018-07-09T05:29:51.164Z,3.23
2018-07-09T05:32:19.615Z,3.50
2018-07-09T05:34:48.433Z,2.93
2018-07-09T05:37:16.861Z,3.27
2018-07-09T05:39:46.724Z,3.30
2018-07-09T05:42:15.912Z,3.37
2018-07-09T05:44:44.166Z,3.03
2018-07-09T05:47:12.834Z,3.20
2018-07-09T05:49:42.693Z,3.20
2018-07-09T05:52:12.283Z,3.17
2018-07-09T05:54:40.860Z,3.23
2018-07-09T05:57:09.442Z,2.93
2018-07-09T05:59:37.747Z,2.80
2018-07-09T06:02:06.063Z,3.00
2018-07-09T06:04:34.291Z,3.00
2018-07-09T06:07:02.841Z,2.90
2018-07-09T06:09:31.492Z,2.80
2018-07-09T06:11:59.769Z,2.90
2018-07-09T06:14:28.491Z,3.20
2018-07-09T06:16:57.358Z,2.90
2018-07-09T06:19:25.715Z,3.00
2018-07-09T06:21:59.805Z,2.90
2018-07-09T06:24:29.885Z,2.60
2018-07-09T06:26:58.394Z,2.77
2018-07-09T06:29:26.877Z,2.90
2018-07-09T06:31:55.262Z,2.77
2018-07-09T06:34:24.847Z,2.87
2018-07-09T06:36:53.498Z,2.80
2018-07-09T06:39:22.192Z,2.60
2018-07-09T06:41:51.539Z,3.00
2018-07-09T06:44:21.023Z,2.73
2018-07-09T06:46:57.214Z,3.10
2018-07-09T06:49:27.464Z,2.70
2018-07-09T06:51:57.189Z,3.00
2018-07-09T06:54:26.032Z,3.33
2018-07-09T06:56:56.565Z,2.90
2018-07-09T06:59:25.692Z,3.23
2018-07-09T07:01:54.140Z,2.70
2018-07-09T07:04:22.508Z,2.63
2018-07-09T07:06:51.191Z,3.00
2018-07-09T07:09:19.566Z,2.93
2018-07-09T07:11:52.568Z,2.77
2018-07-09T07:17:38.927Z,2.13
2018-07-09T07:22:52.488Z,2.13
2018-07-09T07:25:24.815Z,2.43
2018-07-09T07:27:55.009Z,2.37
2018-07-09T07:30:23.600Z,2.10
2018-07-09T07:32:52.304Z,2.07
2018-07-09T07:35:22.259Z,2.07
2018-07-09T07:37:50.798Z,2.53
2018-07-09T07:40:19.253Z,2.23
2018-07-09T07:42:50.403Z,2.30
2018-07-09T07:45:18.699Z,2.30
2018-07-09T07:47:47.434Z,2.37
2018-07-09T07:50:16.020Z,2.20
2018-07-09T07:52:44.812Z,2.40
2018-07-09T07:55:14.605Z,2.27
2018-07-09T07:57:44.186Z,2.00
2018-07-09T08:00:16.462Z,1.77
2018-07-09T08:02:45.965Z,1.70
2018-07-09T08:07:54.101Z,1.50
2018-07-09T08:10:28.303Z,1.77
2018-07-09T08:13:01.002Z,1.30
2018-07-09T08:15:30.800Z,1.23
2018-07-09T08:18:01.268Z,1.43
2018-07-09T08:20:30.310Z,1.50
2018-07-09T08:22:59.176Z,1.63
2018-07-09T08:25:30.087Z,1.50
2018-07-09T08:28:01.460Z,1.60
2018-07-09T08:30:34.612Z,1.50
2018-07-09T08:33:08.450Z,2.33
2018-07-09T08:35:51.285Z,2.10
2018-07-09T08:38:26.781Z,1.80
2018-07-09T08:40:56.262Z,1.70
2018-07-09T08:43:25.226Z,1.83
2018-07-09T08:45:53.636Z,1.80
2018-07-09T08:48:22.265Z,1.90
2018-07-09T08:50:50.957Z,3.87
2018-07-09T08:53:29.959Z,2.03
2018-07-09T08:55:59.993Z,2.20
2018-07-09T09:01:05.718Z,2.60
2018-07-09T09:03:42.271Z,2.40
2018-07-09T09:06:21.368Z,2.07
2018-07-09T09:11:35.253Z,2.30
2018-07-09T09:14:09.409Z,2.37
2018-07-09T09:16:40.155Z,2.40
2018-07-09T09:19:10.332Z,2.27
2018-07-09T09:21:43.054Z,2.10
2018-07-09T09:24:12.655Z,7.17
2018-07-09T09:26:42.408Z,2.00
2018-07-09T09:29:10.936Z,1.80
2018-07-09T09:31:40.526Z,2.30
2018-07-09T09:34:16.184Z,2.10
2018-07-09T09:36:46.495Z,2.20
2018-07-09T09:39:14.898Z,2.47
2018-07-09T09:41:44.467Z,2.00
2018-07-09T09:44:15.201Z,2.00
2018-07-09T09:46:43.818Z,2.23
2018-07-09T09:49:14.295Z,2.13
2018-07-09T09:51:43.645Z,2.13
2018-07-09T09:56:53.310Z,1.83
2018-07-09T09:59:24.420Z,1.70
2018-07-09T10:01:53.239Z,2.20
2018-07-09T10:04:22.086Z,1.90
2018-07-09T10:06:52.695Z,2.30
2018-07-09T10:09:22.345Z,1.90
2018-07-09T10:11:51.148Z,2.00
2018-07-09T10:14:23.327Z,2.30
2018-07-09T10:16:52.287Z,2.37
2018-07-09T10:19:21.654Z,2.47
2018-07-09T10:21:51.040Z,1.60
2018-07-09T10:24:27.764Z,1.90
2018-07-09T10:27:00.484Z,1.83
2018-07-09T10:29:29.077Z,2.37
2018-07-09T10:32:00.776Z,2.20
2018-07-09T10:34:35.263Z,2.27
2018-07-09T10:37:08.979Z,1.77
2018-07-09T10:39:53.135Z,1.90
2018-07-09T10:42:25.281Z,1.90
2018-07-09T10:45:00.212Z,1.90
2018-07-09T10:47:30.039Z,1.93
2018-07-09T10:49:58.828Z,2.03
2018-07-09T10:52:27.740Z,1.93
2018-07-09T10:54:56.851Z,1.77
2018-07-09T10:57:27.180Z,1.90
2018-07-09T10:59:56.092Z,3.07
2018-07-09T11:02:25.060Z,1.90
2018-07-09T11:07:27.619Z,1.90
2018-07-09T11:10:03.774Z,2.20
2018-07-09T11:12:42.234Z,1.97
2018-07-09T11:17:57.019Z,2.10
2018-07-09T11:20:39.569Z,2.57
2018-07-09T11:23:18.456Z,2.07
2018-07-09T11:25:48.040Z,1.97
2018-07-09T11:28:23.651Z,2.07
2018-07-09T11:30:58.250Z,1.80
2018-07-09T11:33:27.599Z,1.90
2018-07-09T11:36:35.648Z,2.13
2018-07-09T11:39:04.938Z,2.20
2018-07-09T11:41:34.087Z,1.80
2018-07-09T11:44:02.492Z,1.80
2018-07-09T11:46:31.118Z,1.83
2018-07-09T11:51:40.116Z,1.80
2018-07-09T11:54:09.128Z,1.93
2018-07-09T11:56:37.883Z,2.13
2018-07-09T11:59:10.695Z,1.90
2018-07-09T12:01:40.359Z,1.60
2018-07-09T12:04:13.785Z,1.73
2018-07-09T12:06:44.544Z,1.83
2018-07-09T12:11:51.098Z,1.30
2018-07-09T12:14:23.634Z,1.80
2018-07-09T12:16:52.854Z,1.80
2018-07-09T12:19:23.573Z,1.87
2018-07-09T12:21:52.296Z,1.60
2018-07-09T12:24:20.927Z,1.50
2018-07-09T12:26:49.905Z,1.80
2018-07-09T12:29:18.037Z,1.60
2018-07-09T12:31:47.394Z,1.87
2018-07-09T12:34:16.847Z,1.80
2018-07-09T12:36:45.607Z,1.57
2018-07-09T12:39:14.896Z,2.00
2018-07-09T12:41:45.338Z,1.50
2018-07-09T12:44:20.650Z,1.63
2018-07-09T12:46:49.366Z,1.70
2018-07-09T12:49:18.495Z,1.63
2018-07-09T12:51:50.573Z,1.50
2018-07-09T12:54:20.349Z,1.60
2018-07-09T12:56:49.275Z,1.80
2018-07-09T12:59:18.242Z,1.43
2018-07-09T13:01:51.641Z,1.80
2018-07-09T13:04:40.121Z,1.30
2018-07-09T13:07:12.944Z,1.30
2018-07-09T13:09:43.887Z,1.50
2018-07-09T13:12:14.030Z,1.53
2018-07-09T13:14:42.816Z,1.23
2018-07-09T13:17:22.902Z,1.57
2018-07-09T13:19:53.034Z,1.70
2018-07-09T13:22:23.412Z,1.60
2018-07-09T13:24:52.314Z,1.80
2018-07-09T13:29:59.275Z,1.37
2018-07-09T13:32:29.826Z,1.37
2018-07-09T13:35:05.199Z,1.80
2018-07-09T13:37:35.278Z,1.40
2018-07-09T13:40:03.974Z,1.50
2018-07-09T13:42:32.483Z,1.40
2018-07-09T13:45:06.795Z,1.80
2018-07-09T13:47:35.250Z,1.50
2018-07-09T13:50:04.938Z,1.47
2018-07-09T13:52:34.008Z,1.40
2018-07-09T13:55:02.739Z,1.60
2018-07-09T13:57:39.001Z,1.30
2018-07-09T14:00:07.814Z,1.50
2018-07-09T14:02:37.205Z,1.30
2018-07-09T14:05:11.156Z,1.50
2018-07-09T14:07:40.169Z,2.00
2018-07-09T14:10:09.615Z,1.40
2018-07-09T14:12:38.605Z,2.00
2018-07-09T14:15:11.439Z,1.67
2018-07-09T14:17:45.393Z,1.70
2018-07-09T14:20:27.591Z,1.83
2018-07-09T14:22:56.615Z,1.77
2018-07-09T14:25:29.642Z,1.80
2018-07-09T14:27:58.208Z,1.77
2018-07-09T14:30:29.662Z,1.80
2018-07-09T14:32:58.428Z,1.60
2018-07-09T14:35:26.960Z,2.07
2018-07-09T14:37:56.330Z,1.90
2018-07-09T14:40:29.916Z,1.60
2018-07-09T14:42:58.312Z,1.80
2018-07-09T14:45:32.329Z,1.90
2018-07-09T14:48:01.859Z,1.40
2018-07-09T14:50:30.572Z,1.60
2018-07-09T14:52:59.375Z,1.83
2018-07-09T14:55:30.410Z,2.07
2018-07-09T14:58:03.712Z,1.53
2018-07-09T15:03:08.231Z,1.97
2018-07-09T15:05:36.734Z,1.65
2018-07-09T15:08:05.304Z,2.15
2018-07-09T15:10:33.846Z,2.10
2018-07-09T15:13:03.913Z,1.92
2018-07-09T15:15:46.973Z,1.98
2018-07-09T15:18:15.162Z,2.00
2018-07-09T15:20:44.384Z,1.87
2018-07-09T15:23:13.360Z,2.12
2018-07-09T15:25:43.215Z,1.70
2018-07-09T15:28:12.308Z,1.98
2018-07-09T15:30:41.764Z,2.08
2018-07-09T15:33:11.609Z,2.20
2018-07-09T15:35:42.134Z,2.02
2018-07-09T15:38:11.237Z,1.92
2018-07-09T15:40:40.644Z,2.00
2018-07-09T15:43:09.095Z,1.98
2018-07-09T15:45:37.771Z,1.77
2018-07-09T15:48:07.998Z,2.00
2018-07-09T15:50:37.208Z,1.95
2018-07-09T15:53:06.672Z,2.08
2018-07-09T15:55:36.101Z,2.35
2018-07-09T15:58:06.749Z,2.20
2018-07-09T16:00:36.839Z,2.02
2018-07-09T16:03:06.009Z,2.00
2018-07-09T16:05:34.558Z,2.00
2018-07-09T16:08:02.978Z,2.15
2018-07-09T16:10:33.269Z,1.92
2018-07-09T16:13:04.112Z,1.85
2018-07-09T16:15:36.305Z,1.90
2018-07-09T16:18:06.244Z,1.70
2018-07-09T16:20:38.143Z,1.95
2018-07-09T16:23:11.536Z,2.12
2018-07-09T16:25:41.722Z,1.87
2018-07-09T16:28:15.504Z,1.82
2018-07-09T16:30:44.447Z,1.80
2018-07-09T16:33:13.772Z,2.02
2018-07-09T16:38:18.722Z,2.50
2018-07-09T16:40:49.803Z,2.00
2018-07-09T16:43:26.527Z,1.60
2018-07-09T16:45:58.816Z,1.85
2018-07-09T16:48:31.978Z,2.10
2018-07-09T16:51:00.284Z,1.92
2018-07-09T16:53:28.318Z,2.58
2018-07-09T16:56:00.182Z,2.00
2018-07-09T16:58:30.161Z,1.85
2018-07-09T17:00:59.053Z,2.10
2018-07-09T17:03:28.298Z,3.13
2018-07-09T17:06:09.346Z,2.47
2018-07-09T17:08:47.471Z,1.93
2018-07-09T17:11:24.921Z,6.70
2018-07-09T17:16:45.164Z,1.80
2018-07-09T17:19:14.441Z,2.03
2018-07-09T17:21:44.586Z,1.83
2018-07-09T17:24:28.696Z,2.17
2018-07-09T17:26:58.368Z,1.73
2018-07-09T17:29:30.326Z,1.80
2018-07-09T17:32:08.693Z,2.10
2018-07-09T17:34:58.935Z,2.17
2018-07-09T17:37:40.503Z,1.90
2018-07-09T17:51:01.023Z,1.90
2018-07-09T17:53:29.575Z,2.20
2018-07-09T17:56:22.310Z,2.07
2018-07-09T18:01:47.159Z,2.20
2018-07-09T18:16:16.863Z,1.83
2018-07-09T18:21:51.906Z,1.60
2018-07-09T18:24:38.540Z,2.30
2018-07-09T18:27:15.865Z,2.07
2018-07-09T18:29:49.823Z,2.10
2018-07-09T18:37:52.887Z,2.50
2018-07-09T18:40:28.118Z,1.60
2018-07-09T18:48:26.329Z,2.03
2018-07-09T18:50:57.152Z,2.07
2018-07-09T18:56:11.752Z,4.20
2018-07-09T18:58:51.587Z,2.23
2018-07-09T19:04:05.853Z,1.90
2018-07-09T19:07:11.061Z,2.23
2018-07-09T19:09:57.596Z,1.73
2018-07-09T19:12:33.979Z,1.97
2018-07-09T19:15:11.125Z,2.13
2018-07-09T19:20:46.975Z,2.00
2018-07-09T19:23:18.279Z,2.00
2018-07-09T19:25:59.144Z,1.63
2018-07-09T19:28:28.907Z,2.00
2018-07-09T19:31:01.635Z,2.30
2018-07-09T19:33:35.530Z,1.70
2018-07-09T19:38:37.443Z,1.80
2018-07-09T19:41:06.047Z,2.27
2018-07-09T19:43:33.589Z,1.93
2018-07-09T19:46:12.855Z,1.90
2018-07-09T19:51:14.292Z,1.80
2018-07-09T19:53:44.345Z,1.70
2018-07-09T19:59:15.485Z,1.60
2018-07-09T20:04:18.992Z,2.17
2018-07-09T20:06:47.409Z,4.97
2018-07-09T20:09:21.776Z,1.97
2018-07-09T20:12:03.529Z,1.80
2018-07-09T20:14:45.471Z,2.40
2018-07-09T20:19:49.435Z,2.10
2018-07-09T20:22:17.878Z,2.00
2018-07-09T20:24:49.513Z,2.17
2018-07-09T20:30:02.635Z,2.20
2018-07-09T20:32:34.807Z,2.27
2018-07-09T20:35:03.468Z,2.20
2018-07-09T20:37:32.941Z,1.97
2018-07-09T20:40:01.615Z,2.07
2018-07-09T20:42:33.669Z,1.80
2018-07-09T20:45:06.166Z,2.27
2018-07-09T20:51:06.980Z,2.20
2018-07-09T20:53:37.088Z,2.60
2018-07-09T20:56:30.199Z,2.27
2018-07-09T20:58:57.581Z,2.07
2018-07-09T21:01:26.583Z,1.90
2018-07-09T21:03:59.666Z,2.47
2018-07-09T21:09:48.755Z,2.10
2018-07-09T21:12:18.980Z,2.07
2018-07-09T21:14:47.934Z,2.13
2018-07-09T21:17:16.128Z,2.27
2018-07-09T21:19:43.475Z,2.00
2018-07-09T21:22:11.881Z,2.23
2018-07-09T21:24:44.172Z,2.33
2018-07-09T21:27:11.550Z,2.23
2018-07-09T21:29:39.874Z,2.40
2018-07-09T21:32:07.439Z,2.60
2018-07-09T21:34:36.047Z,2.90
2018-07-09T21:37:04.071Z,2.80
2018-07-09T21:39:32.356Z,2.50
2018-07-09T21:42:00.765Z,2.50
2018-07-09T21:44:30.880Z,2.50
2018-07-09T21:46:58.505Z,2.67
2018-07-09T21:49:26.492Z,2.37
2018-07-09T21:51:54.132Z,2.37
2018-07-09T21:54:28.312Z,2.60
2018-07-09T21:56:55.970Z,2.70
2018-07-09T21:59:24.968Z,2.63
2018-07-09T22:01:52.667Z,2.63
2018-07-09T22:04:19.971Z,2.30
2018-07-09T22:06:47.616Z,2.57
2018-07-09T22:09:14.879Z,2.77
2018-07-09T22:11:43.033Z,2.47
2018-07-09T22:14:10.628Z,2.47
2018-07-09T22:16:38.450Z,2.70
2018-07-09T22:19:07.543Z,2.60
2018-07-09T22:21:36.438Z,2.37
2018-07-09T22:24:03.776Z,2.60
2018-07-09T22:26:53.119Z,2.50
2018-07-09T22:29:20.935Z,2.60
2018-07-09T22:31:50.651Z,2.47
2018-07-09T22:34:19.809Z,2.50
2018-07-09T22:37:00.180Z,2.70
2018-07-09T22:39:29.770Z,2.70
2018-07-09T22:42:00.085Z,2.80
2018-07-09T22:44:28.907Z,2.07
2018-07-09T22:46:58.543Z,2.80
2018-07-09T22:49:27.934Z,2.27
2018-07-09T22:51:59.522Z,2.60
2018-07-09T22:54:29.506Z,2.40
2018-07-09T22:57:00.402Z,2.53
2018-07-09T22:59:28.739Z,2.67
2018-07-09T23:02:04.077Z,2.47
2018-07-09T23:04:33.129Z,2.50
2018-07-09T23:07:02.531Z,2.47
2018-07-09T23:11:44.109Z,2.27
2018-07-09T23:16:19.662Z,2.27
2018-07-09T23:19:01.621Z,2.23
2018-07-09T23:21:43.870Z,2.40
2018-07-09T23:24:12.687Z,2.70
2018-07-09T23:26:42.355Z,2.50
2018-07-09T23:29:13.807Z,2.17
2018-07-09T23:31:44.029Z,2.60
2018-07-09T23:36:50.499Z,2.37
2018-07-09T23:41:53.419Z,2.50
2018-07-09T23:44:22.282Z,2.57
2018-07-09T23:46:49.954Z,2.40
2018-07-09T23:49:17.673Z,2.80
2018-07-09T23:51:46.151Z,2.87
2018-07-09T23:54:14.249Z,2.67
